sensor_id;sensor_type;location;lat;lon;timestamp;pressure;altitude;pressure_sealevel;temperature;humidity
60920;BME280;59039;52.108;19.942;2023-08-21T00:00:01;101017.92;;;24.12;70.42
60920;BME280;59039;52.108;19.942;2023-08-21T00:02:26;101020.69;;;24.10;70.45
60920;BME280;59039;52.108;19.942;2023-08-21T00:04:51;101020.25;;;24.07;71.03
60920;BME280;59039;52.108;19.942;2023-08-21T00:07:16;101020.36;;;24.04;71.07
60920;BME280;59039;52.108;19.942;2023-08-21T00:09:41;101014.84;;;24.01;70.82
60920;BME280;59039;52.108;19.942;2023-08-21T00:12:07;101019.30;;;24.00;70.83
60920;BME280;59039;52.108;19.942;2023-08-21T00:14:32;101017.62;;;23.97;71.00
60920;BME280;59039;52.108;19.942;2023-08-21T00:16:57;101013.41;;;23.94;71.29
60920;BME280;59039;52.108;19.942;2023-08-21T00:19:22;101011.66;;;23.91;71.29
60920;BME280;59039;52.108;19.942;2023-08-21T00:21:48;101010.73;;;23.89;71.29
60920;BME280;59039;52.108;19.942;2023-08-21T00:24:13;101006.27;;;23.86;71.31
60920;BME280;59039;52.108;19.942;2023-08-21T00:26:38;101006.81;;;23.84;71.51
60920;BME280;59039;52.108;19.942;2023-08-21T00:29:04;101006.70;;;23.81;71.53
60920;BME280;59039;52.108;19.942;2023-08-21T00:31:29;101010.67;;;23.78;71.33
60920;BME280;59039;52.108;19.942;2023-08-21T00:33:55;101008.84;;;23.76;71.35
60920;BME280;59039;52.108;19.942;2023-08-21T00:36:20;101011.58;;;23.74;71.48
60920;BME280;59039;52.108;19.942;2023-08-21T00:38:45;101015.22;;;23.72;71.79
60920;BME280;59039;52.108;19.942;2023-08-21T00:41:11;101012.52;;;23.69;72.09
60920;BME280;59039;52.108;19.942;2023-08-21T00:43:36;101013.23;;;23.65;72.04
60920;BME280;59039;52.108;19.942;2023-08-21T00:46:02;101008.95;;;23.62;72.04
60920;BME280;59039;52.108;19.942;2023-08-21T00:48:27;101011.92;;;23.60;72.21
60920;BME280;59039;52.108;19.942;2023-08-21T00:50:53;101016.36;;;23.58;72.07
60920;BME280;59039;52.108;19.942;2023-08-21T00:53:18;101022.27;;;23.57;72.16
60920;BME280;59039;52.108;19.942;2023-08-21T00:55:43;101017.66;;;23.55;72.27
60920;BME280;59039;52.108;19.942;2023-08-21T00:58:10;101023.73;;;23.54;72.15
60920;BME280;59039;52.108;19.942;2023-08-21T01:00:35;101023.45;;;23.54;72.07
60920;BME280;59039;52.108;19.942;2023-08-21T01:03:00;101025.02;;;23.53;72.06
60920;BME280;59039;52.108;19.942;2023-08-21T01:05:26;101022.90;;;23.51;72.22
60920;BME280;59039;52.108;19.942;2023-08-21T01:08:10;101026.47;;;23.48;72.27
60920;BME280;59039;52.108;19.942;2023-08-21T01:10:52;101029.75;;;23.45;72.55
60920;BME280;59039;52.108;19.942;2023-08-21T01:15:49;101029.86;;;23.40;72.41
60920;BME280;59039;52.108;19.942;2023-08-21T01:18:15;101026.46;;;23.39;72.63
60920;BME280;59039;52.108;19.942;2023-08-21T01:20:42;101028.73;;;23.37;72.83
60920;BME280;59039;52.108;19.942;2023-08-21T01:23:07;101027.95;;;23.34;72.68
60920;BME280;59039;52.108;19.942;2023-08-21T01:25:32;101024.93;;;23.32;72.54
60920;BME280;59039;52.108;19.942;2023-08-21T01:27:58;101024.38;;;23.31;72.79
60920;BME280;59039;52.108;19.942;2023-08-21T01:30:23;101026.69;;;23.29;72.90
60920;BME280;59039;52.108;19.942;2023-08-21T01:33:01;101025.73;;;23.27;73.08
60920;BME280;59039;52.108;19.942;2023-08-21T01:35:30;101021.63;;;23.23;72.99
60920;BME280;59039;52.108;19.942;2023-08-21T01:37:56;101023.43;;;23.21;73.03
60920;BME280;59039;52.108;19.942;2023-08-21T01:40:25;101023.84;;;23.18;73.22
60920;BME280;59039;52.108;19.942;2023-08-21T01:42:52;101025.58;;;23.14;73.30
60920;BME280;59039;52.108;19.942;2023-08-21T01:45:18;101022.40;;;23.10;73.37
60920;BME280;59039;52.108;19.942;2023-08-21T01:47:43;101018.31;;;23.08;73.72
60920;BME280;59039;52.108;19.942;2023-08-21T01:50:08;101008.10;;;23.04;73.82
60920;BME280;59039;52.108;19.942;2023-08-21T01:52:33;101015.36;;;23.01;73.82
60920;BME280;59039;52.108;19.942;2023-08-21T01:54:59;101012.73;;;23.00;73.93
60920;BME280;59039;52.108;19.942;2023-08-21T01:57:25;101017.40;;;22.98;73.90
60920;BME280;59039;52.108;19.942;2023-08-21T01:59:50;101016.65;;;22.96;73.95
60920;BME280;59039;52.108;19.942;2023-08-21T02:02:15;101012.09;;;22.94;73.89
60920;BME280;59039;52.108;19.942;2023-08-21T02:04:40;101010.83;;;22.94;74.18
60920;BME280;59039;52.108;19.942;2023-08-21T02:07:05;101009.47;;;22.92;74.01
60920;BME280;59039;52.108;19.942;2023-08-21T02:09:31;101011.27;;;22.91;73.67
60920;BME280;59039;52.108;19.942;2023-08-21T02:11:56;101011.70;;;22.91;74.04
60920;BME280;59039;52.108;19.942;2023-08-21T02:14:21;101012.12;;;22.89;74.28
60920;BME280;59039;52.108;19.942;2023-08-21T02:16:47;101014.87;;;22.87;74.26
60920;BME280;59039;52.108;19.942;2023-08-21T02:19:12;101009.52;;;22.84;74.13
60920;BME280;59039;52.108;19.942;2023-08-21T02:21:38;101008.97;;;22.82;74.07
60920;BME280;59039;52.108;19.942;2023-08-21T02:24:03;101007.92;;;22.80;74.23
60920;BME280;59039;52.108;19.942;2023-08-21T02:26:28;101000.29;;;22.78;74.88
60920;BME280;59039;52.108;19.942;2023-08-21T02:28:54;101003.39;;;22.76;74.56
60920;BME280;59039;52.108;19.942;2023-08-21T02:31:19;101005.05;;;22.74;74.89
60920;BME280;59039;52.108;19.942;2023-08-21T02:33:44;101006.88;;;22.73;74.88
60920;BME280;59039;52.108;19.942;2023-08-21T02:36:09;101003.31;;;22.71;74.89
60920;BME280;59039;52.108;19.942;2023-08-21T02:38:35;101009.97;;;22.71;74.45
60920;BME280;59039;52.108;19.942;2023-08-21T02:41:00;101013.85;;;22.69;75.07
60920;BME280;59039;52.108;19.942;2023-08-21T02:43:25;101015.52;;;22.68;74.86
60920;BME280;59039;52.108;19.942;2023-08-21T02:45:51;101013.98;;;22.67;74.76
60920;BME280;59039;52.108;19.942;2023-08-21T02:48:16;101009.77;;;22.66;75.13
60920;BME280;59039;52.108;19.942;2023-08-21T02:50:41;101010.59;;;22.64;75.00
60920;BME280;59039;52.108;19.942;2023-08-21T02:53:06;101013.77;;;22.61;75.16
60920;BME280;59039;52.108;19.942;2023-08-21T02:55:31;101010.54;;;22.58;75.24
60920;BME280;59039;52.108;19.942;2023-08-21T02:57:57;101010.05;;;22.55;75.45
60920;BME280;59039;52.108;19.942;2023-08-21T03:00:22;101008.81;;;22.53;75.21
60920;BME280;59039;52.108;19.942;2023-08-21T03:02:47;101010.69;;;22.51;75.22
60920;BME280;59039;52.108;19.942;2023-08-21T03:05:12;101007.20;;;22.50;75.29
60920;BME280;59039;52.108;19.942;2023-08-21T03:07:38;101004.23;;;22.46;75.27
60920;BME280;59039;52.108;19.942;2023-08-21T03:10:03;101007.34;;;22.45;75.56
60920;BME280;59039;52.108;19.942;2023-08-21T03:12:29;101009.02;;;22.43;75.51
60920;BME280;59039;52.108;19.942;2023-08-21T03:14:54;101009.91;;;22.41;75.48
60920;BME280;59039;52.108;19.942;2023-08-21T03:17:19;101014.39;;;22.40;75.71
60920;BME280;59039;52.108;19.942;2023-08-21T03:19:45;101011.90;;;22.37;75.81
60920;BME280;59039;52.108;19.942;2023-08-21T03:22:10;101010.04;;;22.34;75.92
60920;BME280;59039;52.108;19.942;2023-08-21T03:24:35;101009.02;;;22.32;75.93
60920;BME280;59039;52.108;19.942;2023-08-21T03:27:01;101008.12;;;22.29;76.15
60920;BME280;59039;52.108;19.942;2023-08-21T03:29:27;101011.63;;;22.27;76.31
60920;BME280;59039;52.108;19.942;2023-08-21T03:31:53;101020.15;;;22.25;76.07
60920;BME280;59039;52.108;19.942;2023-08-21T03:34:18;101022.73;;;22.24;76.24
60920;BME280;59039;52.108;19.942;2023-08-21T03:36:44;101021.56;;;22.22;76.37
60920;BME280;59039;52.108;19.942;2023-08-21T03:39:09;101023.65;;;22.19;76.43
60920;BME280;59039;52.108;19.942;2023-08-21T03:41:34;101021.98;;;22.16;76.41
60920;BME280;59039;52.108;19.942;2023-08-21T03:43:59;101023.64;;;22.14;76.74
60920;BME280;59039;52.108;19.942;2023-08-21T03:46:24;101025.02;;;22.12;76.74
60920;BME280;59039;52.108;19.942;2023-08-21T03:48:51;101030.89;;;22.10;76.42
60920;BME280;59039;52.108;19.942;2023-08-21T03:51:16;101032.52;;;22.10;76.28
60920;BME280;59039;52.108;19.942;2023-08-21T03:53:41;101037.70;;;22.12;76.40
60920;BME280;59039;52.108;19.942;2023-08-21T03:56:07;101044.17;;;22.11;76.48
60920;BME280;59039;52.108;19.942;2023-08-21T03:58:32;101047.11;;;22.12;76.31
60920;BME280;59039;52.108;19.942;2023-08-21T04:00:57;101048.95;;;22.12;76.34
60920;BME280;59039;52.108;19.942;2023-08-21T04:03:22;101049.33;;;22.12;76.16
60920;BME280;59039;52.108;19.942;2023-08-21T04:05:48;101058.88;;;22.12;76.49
60920;BME280;59039;52.108;19.942;2023-08-21T04:08:13;101057.95;;;22.12;76.41
60920;BME280;59039;52.108;19.942;2023-08-21T04:10:38;101063.68;;;22.12;76.34
60920;BME280;59039;52.108;19.942;2023-08-21T04:13:04;101060.83;;;22.11;76.44
60920;BME280;59039;52.108;19.942;2023-08-21T04:15:30;101063.35;;;22.12;76.56
60920;BME280;59039;52.108;19.942;2023-08-21T04:17:55;101063.52;;;22.12;76.65
60920;BME280;59039;52.108;19.942;2023-08-21T04:20:20;101065.98;;;22.13;76.90
60920;BME280;59039;52.108;19.942;2023-08-21T04:22:45;101063.46;;;22.14;76.82
60920;BME280;59039;52.108;19.942;2023-08-21T04:25:11;101056.65;;;22.14;77.16
60920;BME280;59039;52.108;19.942;2023-08-21T04:27:36;101050.73;;;22.14;77.23
60920;BME280;59039;52.108;19.942;2023-08-21T04:30:02;101050.30;;;22.14;77.32
60920;BME280;59039;52.108;19.942;2023-08-21T04:32:27;101050.01;;;22.15;77.26
60920;BME280;59039;52.108;19.942;2023-08-21T04:34:53;101049.80;;;22.15;77.37
60920;BME280;59039;52.108;19.942;2023-08-21T04:37:18;101043.50;;;22.16;77.27
60920;BME280;59039;52.108;19.942;2023-08-21T04:39:43;101041.70;;;22.15;77.40
60920;BME280;59039;52.108;19.942;2023-08-21T04:42:09;101038.93;;;22.14;77.29
60920;BME280;59039;52.108;19.942;2023-08-21T04:44:34;101040.02;;;22.14;77.39
60920;BME280;59039;52.108;19.942;2023-08-21T04:47:19;101038.34;;;22.13;77.60
60920;BME280;59039;52.108;19.942;2023-08-21T04:49:44;101037.84;;;22.12;77.75
60920;BME280;59039;52.108;19.942;2023-08-21T04:52:09;101032.67;;;22.14;77.51
60920;BME280;59039;52.108;19.942;2023-08-21T04:54:35;101032.24;;;22.14;77.38
60920;BME280;59039;52.108;19.942;2023-08-21T04:57:00;101039.36;;;22.15;77.61
60920;BME280;59039;52.108;19.942;2023-08-21T04:59:26;101051.20;;;22.14;77.80
60920;BME280;59039;52.108;19.942;2023-08-21T05:01:52;101064.63;;;22.15;77.70
60920;BME280;59039;52.108;19.942;2023-08-21T05:04:17;101075.48;;;22.15;77.65
60920;BME280;59039;52.108;19.942;2023-08-21T05:06:42;101073.60;;;22.15;77.68
60920;BME280;59039;52.108;19.942;2023-08-21T05:09:07;101069.86;;;22.15;77.78
60920;BME280;59039;52.108;19.942;2023-08-21T05:11:33;101063.92;;;22.15;77.89
60920;BME280;59039;52.108;19.942;2023-08-21T05:13:58;101067.08;;;22.14;77.91
60920;BME280;59039;52.108;19.942;2023-08-21T05:16:23;101083.49;;;22.15;77.98
60920;BME280;59039;52.108;19.942;2023-08-21T05:18:48;101092.42;;;22.14;77.98
60920;BME280;59039;52.108;19.942;2023-08-21T05:21:13;101096.27;;;22.14;78.00
60920;BME280;59039;52.108;19.942;2023-08-21T05:23:39;101118.11;;;22.14;78.45
60920;BME280;59039;52.108;19.942;2023-08-21T05:26:04;101131.95;;;22.14;78.40
60920;BME280;59039;52.108;19.942;2023-08-21T05:28:29;101135.48;;;22.14;78.62
60920;BME280;59039;52.108;19.942;2023-08-21T05:30:54;101137.20;;;22.13;79.30
60920;BME280;59039;52.108;19.942;2023-08-21T05:33:19;101145.85;;;22.12;79.48
60920;BME280;59039;52.108;19.942;2023-08-21T05:35:45;101158.41;;;22.10;79.46
60920;BME280;59039;52.108;19.942;2023-08-21T05:38:10;101159.05;;;22.08;80.16
60920;BME280;59039;52.108;19.942;2023-08-21T05:40:35;101157.73;;;22.07;80.43
60920;BME280;59039;52.108;19.942;2023-08-21T05:43:00;101144.90;;;22.05;80.76
60920;BME280;59039;52.108;19.942;2023-08-21T05:45:26;101150.44;;;22.04;81.36
60920;BME280;59039;52.108;19.942;2023-08-21T05:47:51;101153.00;;;22.03;81.61
60920;BME280;59039;52.108;19.942;2023-08-21T05:50:16;101153.30;;;22.01;82.14
60920;BME280;59039;52.108;19.942;2023-08-21T05:52:41;101150.90;;;21.99;82.29
60920;BME280;59039;52.108;19.942;2023-08-21T05:55:07;101152.98;;;21.98;82.15
60920;BME280;59039;52.108;19.942;2023-08-21T05:57:32;101155.16;;;21.97;82.48
60920;BME280;59039;52.108;19.942;2023-08-21T05:59:57;101173.91;;;21.96;81.70
60920;BME280;59039;52.108;19.942;2023-08-21T06:02:22;101194.67;;;21.95;81.36
60920;BME280;59039;52.108;19.942;2023-08-21T06:04:47;101200.63;;;21.93;82.04
60920;BME280;59039;52.108;19.942;2023-08-21T06:07:13;101200.55;;;21.91;82.28
60920;BME280;59039;52.108;19.942;2023-08-21T06:09:38;101197.39;;;21.89;82.56
60920;BME280;59039;52.108;19.942;2023-08-21T06:12:03;101187.26;;;21.87;82.47
60920;BME280;59039;52.108;19.942;2023-08-21T06:14:29;101186.88;;;21.86;82.53
60920;BME280;59039;52.108;19.942;2023-08-21T06:17:03;101193.35;;;21.86;82.98
60920;BME280;59039;52.108;19.942;2023-08-21T06:19:29;101201.86;;;21.84;83.19
60920;BME280;59039;52.108;19.942;2023-08-21T06:21:57;101205.17;;;21.83;83.47
60920;BME280;59039;52.108;19.942;2023-08-21T06:24:23;101205.26;;;21.81;83.86
60920;BME280;59039;52.108;19.942;2023-08-21T06:26:48;101202.22;;;21.79;83.71
60920;BME280;59039;52.108;19.942;2023-08-21T06:29:14;101203.25;;;21.77;83.50
60920;BME280;59039;52.108;19.942;2023-08-21T06:31:39;101205.29;;;21.76;82.88
60920;BME280;59039;52.108;19.942;2023-08-21T06:34:04;101204.65;;;21.75;84.17
60920;BME280;59039;52.108;19.942;2023-08-21T06:36:30;101210.27;;;21.74;83.76
60920;BME280;59039;52.108;19.942;2023-08-21T06:38:55;101208.60;;;21.74;83.84
60920;BME280;59039;52.108;19.942;2023-08-21T06:41:21;101207.84;;;21.74;83.39
60920;BME280;59039;52.108;19.942;2023-08-21T06:43:46;101210.09;;;21.75;83.45
60920;BME280;59039;52.108;19.942;2023-08-21T06:46:12;101212.23;;;21.76;83.80
60920;BME280;59039;52.108;19.942;2023-08-21T06:48:38;101212.65;;;21.77;83.81
60920;BME280;59039;52.108;19.942;2023-08-21T06:51:04;101215.27;;;21.78;84.34
60920;BME280;59039;52.108;19.942;2023-08-21T06:53:29;101217.65;;;21.79;83.57
60920;BME280;59039;52.108;19.942;2023-08-21T06:55:54;101222.36;;;21.80;83.77
60920;BME280;59039;52.108;19.942;2023-08-21T06:58:20;101218.66;;;21.80;84.97
60920;BME280;59039;52.108;19.942;2023-08-21T07:00:46;101216.91;;;21.81;84.49
60920;BME280;59039;52.108;19.942;2023-08-21T07:03:11;101220.92;;;21.81;84.46
60920;BME280;59039;52.108;19.942;2023-08-21T07:05:37;101217.09;;;21.82;84.80
60920;BME280;59039;52.108;19.942;2023-08-21T07:08:02;101216.83;;;21.84;84.97
60920;BME280;59039;52.108;19.942;2023-08-21T07:10:27;101211.48;;;21.85;85.04
60920;BME280;59039;52.108;19.942;2023-08-21T07:12:53;101209.61;;;21.87;85.53
60920;BME280;59039;52.108;19.942;2023-08-21T07:15:18;101210.59;;;21.89;85.40
60920;BME280;59039;52.108;19.942;2023-08-21T07:17:43;101211.80;;;21.91;85.95
60920;BME280;59039;52.108;19.942;2023-08-21T07:20:08;101210.60;;;21.93;85.40
60920;BME280;59039;52.108;19.942;2023-08-21T07:22:34;101212.95;;;21.96;86.23
60920;BME280;59039;52.108;19.942;2023-08-21T07:24:59;101203.49;;;21.99;86.61
60920;BME280;59039;52.108;19.942;2023-08-21T07:27:24;101202.96;;;22.03;86.67
60920;BME280;59039;52.108;19.942;2023-08-21T07:29:49;101200.98;;;22.07;86.22
60920;BME280;59039;52.108;19.942;2023-08-21T07:32:15;101199.76;;;22.12;86.37
60920;BME280;59039;52.108;19.942;2023-08-21T07:34:40;101200.96;;;22.18;86.52
60920;BME280;59039;52.108;19.942;2023-08-21T07:37:07;101198.34;;;22.22;86.41
60920;BME280;59039;52.108;19.942;2023-08-21T07:39:32;101196.38;;;22.27;86.41
60920;BME280;59039;52.108;19.942;2023-08-21T07:41:58;101192.67;;;22.31;86.12
60920;BME280;59039;52.108;19.942;2023-08-21T07:44:23;101188.67;;;22.36;86.28
60920;BME280;59039;52.108;19.942;2023-08-21T07:46:48;101188.70;;;22.42;86.48
60920;BME280;59039;52.108;19.942;2023-08-21T07:49:13;101187.42;;;22.49;86.50
60920;BME280;59039;52.108;19.942;2023-08-21T07:51:38;101183.63;;;22.57;86.61
60920;BME280;59039;52.108;19.942;2023-08-21T07:54:04;101179.17;;;22.63;86.48
60920;BME280;59039;52.108;19.942;2023-08-21T07:56:29;101173.20;;;22.70;86.59
60920;BME280;59039;52.108;19.942;2023-08-21T07:58:54;101167.02;;;22.77;86.44
60920;BME280;59039;52.108;19.942;2023-08-21T08:01:19;101167.09;;;22.87;86.08
60920;BME280;59039;52.108;19.942;2023-08-21T08:03:44;101164.30;;;22.95;86.32
60920;BME280;59039;52.108;19.942;2023-08-21T08:06:10;101166.73;;;23.03;86.25
60920;BME280;59039;52.108;19.942;2023-08-21T08:08:35;101159.48;;;23.10;86.19
60920;BME280;59039;52.108;19.942;2023-08-21T08:11:03;101161.08;;;23.21;85.97
60920;BME280;59039;52.108;19.942;2023-08-21T08:13:29;101161.33;;;23.28;85.62
60920;BME280;59039;52.108;19.942;2023-08-21T08:15:54;101165.64;;;23.36;85.84
60920;BME280;59039;52.108;19.942;2023-08-21T08:18:19;101160.65;;;23.44;85.67
60920;BME280;59039;52.108;19.942;2023-08-21T08:20:45;101166.61;;;23.51;85.03
60920;BME280;59039;52.108;19.942;2023-08-21T08:23:10;101165.42;;;23.60;84.64
60920;BME280;59039;52.108;19.942;2023-08-21T08:25:35;101164.90;;;23.68;83.81
60920;BME280;59039;52.108;19.942;2023-08-21T08:28:00;101166.54;;;23.77;83.50
60920;BME280;59039;52.108;19.942;2023-08-21T08:30:26;101167.24;;;23.87;82.77
60920;BME280;59039;52.108;19.942;2023-08-21T08:32:51;101168.85;;;23.93;82.39
60920;BME280;59039;52.108;19.942;2023-08-21T08:35:16;101168.98;;;23.99;81.73
60920;BME280;59039;52.108;19.942;2023-08-21T08:37:42;101163.61;;;24.03;81.65
60920;BME280;59039;52.108;19.942;2023-08-21T08:40:07;101163.06;;;24.06;81.22
60920;BME280;59039;52.108;19.942;2023-08-21T08:42:34;101160.83;;;24.09;81.16
60920;BME280;59039;52.108;19.942;2023-08-21T08:45:02;101159.10;;;24.12;79.63
60920;BME280;59039;52.108;19.942;2023-08-21T08:47:27;101157.16;;;24.12;78.32
60920;BME280;59039;52.108;19.942;2023-08-21T08:49:54;101155.67;;;24.12;78.41
60920;BME280;59039;52.108;19.942;2023-08-21T08:52:20;101152.97;;;24.14;78.16
60920;BME280;59039;52.108;19.942;2023-08-21T08:54:46;101150.45;;;24.16;77.95
60920;BME280;59039;52.108;19.942;2023-08-21T08:57:11;101151.43;;;24.17;77.89
60920;BME280;59039;52.108;19.942;2023-08-21T08:59:37;101150.91;;;24.20;77.86
60920;BME280;59039;52.108;19.942;2023-08-21T09:02:02;101148.29;;;24.21;77.16
60920;BME280;59039;52.108;19.942;2023-08-21T09:04:27;101147.38;;;24.22;76.63
60920;BME280;59039;52.108;19.942;2023-08-21T09:07:06;101144.39;;;24.22;75.64
60920;BME280;59039;52.108;19.942;2023-08-21T09:09:40;101146.48;;;24.23;74.71
60920;BME280;59039;52.108;19.942;2023-08-21T09:12:13;101142.98;;;24.23;74.28
60920;BME280;59039;52.108;19.942;2023-08-21T09:14:40;101144.32;;;24.24;74.87
60920;BME280;59039;52.108;19.942;2023-08-21T09:17:05;101141.16;;;24.25;74.59
60920;BME280;59039;52.108;19.942;2023-08-21T09:19:30;101138.97;;;24.26;73.85
60920;BME280;59039;52.108;19.942;2023-08-21T09:21:55;101141.19;;;24.28;73.14
60920;BME280;59039;52.108;19.942;2023-08-21T09:24:20;101145.96;;;24.28;72.11
60920;BME280;59039;52.108;19.942;2023-08-21T09:26:46;101145.12;;;24.27;71.12
60920;BME280;59039;52.108;19.942;2023-08-21T09:29:12;101148.92;;;24.27;69.93
60920;BME280;59039;52.108;19.942;2023-08-21T09:31:37;101149.64;;;24.27;69.33
60920;BME280;59039;52.108;19.942;2023-08-21T09:34:03;101147.77;;;24.27;69.28
60920;BME280;59039;52.108;19.942;2023-08-21T09:36:29;101144.95;;;24.26;68.87
60920;BME280;59039;52.108;19.942;2023-08-21T09:38:54;101141.62;;;24.26;68.56
60920;BME280;59039;52.108;19.942;2023-08-21T09:41:20;101140.41;;;24.27;68.41
60920;BME280;59039;52.108;19.942;2023-08-21T09:43:45;101138.49;;;24.27;67.38
60920;BME280;59039;52.108;19.942;2023-08-21T09:46:14;101136.98;;;24.29;68.04
60920;BME280;59039;52.108;19.942;2023-08-21T09:48:40;101137.11;;;24.29;67.33
60920;BME280;59039;52.108;19.942;2023-08-21T09:51:06;101137.40;;;24.30;65.84
60920;BME280;59039;52.108;19.942;2023-08-21T09:53:32;101133.88;;;24.31;64.52
60920;BME280;59039;52.108;19.942;2023-08-21T09:55:58;101132.88;;;24.32;63.86
60920;BME280;59039;52.108;19.942;2023-08-21T09:58:25;101131.19;;;24.34;63.11
60920;BME280;59039;52.108;19.942;2023-08-21T10:00:51;101133.36;;;24.35;62.26
60920;BME280;59039;52.108;19.942;2023-08-21T10:03:20;101126.77;;;24.37;61.68
60920;BME280;59039;52.108;19.942;2023-08-21T10:05:47;101118.92;;;24.39;61.54
60920;BME280;59039;52.108;19.942;2023-08-21T10:08:15;101121.16;;;24.42;60.31
60920;BME280;59039;52.108;19.942;2023-08-21T10:10:40;101123.75;;;24.44;59.45
60920;BME280;59039;52.108;19.942;2023-08-21T10:13:07;101120.77;;;24.47;58.79
60920;BME280;59039;52.108;19.942;2023-08-21T10:15:34;101123.77;;;24.49;57.44
60920;BME280;59039;52.108;19.942;2023-08-21T10:18:21;101121.72;;;24.53;57.29
60920;BME280;59039;52.108;19.942;2023-08-21T10:20:47;101114.13;;;24.55;55.46
60920;BME280;59039;52.108;19.942;2023-08-21T10:23:29;101114.39;;;24.58;55.50
60920;BME280;59039;52.108;19.942;2023-08-21T10:25:56;101112.95;;;24.62;55.82
60920;BME280;59039;52.108;19.942;2023-08-21T10:28:22;101110.77;;;24.66;55.98
60920;BME280;59039;52.108;19.942;2023-08-21T10:30:47;101117.39;;;24.68;54.04
60920;BME280;59039;52.108;19.942;2023-08-21T10:33:12;101115.54;;;24.71;53.06
60920;BME280;59039;52.108;19.942;2023-08-21T10:35:38;101121.74;;;24.74;52.99
60920;BME280;59039;52.108;19.942;2023-08-21T10:38:15;101126.38;;;24.76;52.02
60920;BME280;59039;52.108;19.942;2023-08-21T10:41:04;101125.85;;;24.81;52.67
60920;BME280;59039;52.108;19.942;2023-08-21T10:46:02;101122.05;;;24.86;52.03
60920;BME280;59039;52.108;19.942;2023-08-21T10:48:27;101120.39;;;24.90;51.52
60920;BME280;59039;52.108;19.942;2023-08-21T10:50:53;101115.91;;;24.93;51.46
60920;BME280;59039;52.108;19.942;2023-08-21T10:53:19;101111.96;;;24.96;51.54
60920;BME280;59039;52.108;19.942;2023-08-21T10:55:52;101109.91;;;25.00;51.85
60920;BME280;59039;52.108;19.942;2023-08-21T10:58:18;101105.89;;;25.04;51.75
60920;BME280;59039;52.108;19.942;2023-08-21T11:00:43;101107.36;;;25.09;51.68
60920;BME280;59039;52.108;19.942;2023-08-21T11:03:08;101106.30;;;25.13;51.72
60920;BME280;59039;52.108;19.942;2023-08-21T11:05:33;101105.27;;;25.17;48.07
60920;BME280;59039;52.108;19.942;2023-08-21T11:07:59;101107.65;;;25.24;48.91
60920;BME280;59039;52.108;19.942;2023-08-21T11:10:29;101105.92;;;25.29;49.11
60920;BME280;59039;52.108;19.942;2023-08-21T11:12:57;101110.00;;;25.34;48.51
60920;BME280;59039;52.108;19.942;2023-08-21T11:15:24;101109.48;;;25.37;46.27
60920;BME280;59039;52.108;19.942;2023-08-21T11:17:54;101110.73;;;25.43;46.25
60920;BME280;59039;52.108;19.942;2023-08-21T11:20:19;101112.12;;;25.49;47.67
60920;BME280;59039;52.108;19.942;2023-08-21T11:22:44;101114.81;;;25.55;48.61
60920;BME280;59039;52.108;19.942;2023-08-21T11:25:10;101111.11;;;25.57;48.81
60920;BME280;59039;52.108;19.942;2023-08-21T11:27:35;101111.41;;;25.60;47.81
60920;BME280;59039;52.108;19.942;2023-08-21T11:30:00;101115.01;;;25.63;48.22
60920;BME280;59039;52.108;19.942;2023-08-21T11:32:26;101112.98;;;25.67;48.27
60920;BME280;59039;52.108;19.942;2023-08-21T11:34:53;101113.99;;;25.70;48.91
60920;BME280;59039;52.108;19.942;2023-08-21T11:37:20;101116.89;;;25.71;48.47
60920;BME280;59039;52.108;19.942;2023-08-21T11:39:50;101115.61;;;25.73;48.29
60920;BME280;59039;52.108;19.942;2023-08-21T11:42:16;101110.11;;;25.75;47.92
60920;BME280;59039;52.108;19.942;2023-08-21T11:44:52;101109.61;;;25.78;48.29
60920;BME280;59039;52.108;19.942;2023-08-21T11:47:20;101107.41;;;25.79;47.47
60920;BME280;59039;52.108;19.942;2023-08-21T11:49:46;101102.33;;;25.81;47.72
60920;BME280;59039;52.108;19.942;2023-08-21T11:52:13;101100.84;;;25.83;47.74
60920;BME280;59039;52.108;19.942;2023-08-21T11:54:40;101096.52;;;25.85;48.08
60920;BME280;59039;52.108;19.942;2023-08-21T11:57:07;101095.99;;;25.88;48.11
60920;BME280;59039;52.108;19.942;2023-08-21T11:59:33;101094.82;;;25.89;48.17
60920;BME280;59039;52.108;19.942;2023-08-21T12:01:58;101097.94;;;25.91;48.67
60920;BME280;59039;52.108;19.942;2023-08-21T12:04:24;101099.15;;;25.94;49.10
60920;BME280;59039;52.108;19.942;2023-08-21T12:06:49;101098.07;;;25.95;48.39
60920;BME280;59039;52.108;19.942;2023-08-21T12:09:14;101097.45;;;25.96;47.03
60920;BME280;59039;52.108;19.942;2023-08-21T12:11:40;101097.48;;;25.98;47.74
60920;BME280;59039;52.108;19.942;2023-08-21T12:14:05;101098.18;;;25.99;47.81
60920;BME280;59039;52.108;19.942;2023-08-21T12:16:30;101100.80;;;26.01;48.39
60920;BME280;59039;52.108;19.942;2023-08-21T12:18:56;101101.60;;;26.02;48.29
60920;BME280;59039;52.108;19.942;2023-08-21T12:21:21;101104.20;;;26.04;47.67
60920;BME280;59039;52.108;19.942;2023-08-21T12:23:46;101099.52;;;26.06;47.33
60920;BME280;59039;52.108;19.942;2023-08-21T12:26:11;101103.13;;;26.07;48.18
60920;BME280;59039;52.108;19.942;2023-08-21T12:28:37;101097.20;;;26.10;48.21
60920;BME280;59039;52.108;19.942;2023-08-21T12:31:02;101090.92;;;26.12;48.78
60920;BME280;59039;52.108;19.942;2023-08-21T12:33:27;101092.53;;;26.15;48.65
60920;BME280;59039;52.108;19.942;2023-08-21T12:35:52;101089.29;;;26.16;48.79
60920;BME280;59039;52.108;19.942;2023-08-21T12:38:18;101088.98;;;26.18;47.84